Terminal Aerodrome Forecast
Issued by NWS Newport/Morehead City, NC

Home | Current Version | Previous Version | Graphics & Text | Print | Product List | Glossary On
Versions: 1 2 3 4 5 6 7 8 9 10 11 12 13 14 15 16
589
FTUS42 KMHX 231716 CCA
TAFEWN
TAF COR
KEWN 231716Z 2318/2418 32008KT P6SM -SHRA BKN025
     FM232300 34006KT P6SM VCSH BKN035
     FM240100 VRB03KT P6SM SKC=

USA.gov is the U.S. government's official web portal to all federal, state and local government web resources and services.